ADDS METAR Data INFO
IDs: Format: Raw Decoded Include TAF

Data at: 0213 UTC 17 Aug 2018

PAKF 170156Z AUTO 00000KT 10SM -RA FEW020 BKN025 OVC038 08/07 A2997 RMK AO2 RAB03 SLP149 P0001 T00830072
PAKF 170056Z AUTO 35007KT 10SM FEW022 BKN033 OVC044 09/06 A2996 RMK AO2 SLP145 T00940056
PAKF 162356Z AUTO 14007KT 10SM FEW032 BKN050 OVC060 11/06 A2996 RMK AO2 SLP145 6//// T01060061 10106 20078 58004
PAKF 162256Z AUTO 16008KT 10SM OVC049 10/05 A2996 RMK AO2 RAE36 SLP145 T01000050 PNO $
PAKF 162156Z AUTO 18008KT 10SM -RA FEW039 SCT045 OVC055 09/06 A2997 RMK AO2 RAB06 SLP149 P0000 T00890056
PAKF 162056Z AUTO 06004KT 10SM FEW036 SCT050 OVC060 10/06 A2997 RMK AO2 SLP149 T01000056 56003
PAKF 161956Z AUTO VRB03KT 10SM OVC034 09/05 A2997 RMK AO2 SLP149 T00940050
PAKF 161856Z AUTO 12003KT 10SM FEW034 OVC060 09/06 A2998 RMK AO2 SLP150 T00940056
PAKF 161756Z AUTO 00000KT 10SM OVC060 08/06 A2998 RMK AO2 RAB11E25 SLP152 P0000 60000 T00780056 10083 20050 53001
PAKF 161656Z AUTO 00000KT 10SM OVC060 07/06 A2998 RMK AO2 RAE53 SLP151 P0000 T00670056
PAKF 161556Z AUTO 00000KT 10SM -RA OVC037 06/04 A2997 RMK AO2 RAB44 SLP150 P0000 T00610044
PAKF 161456Z AUTO 24003KT 10SM OVC034 06/04 A2998 RMK AO2 SLP150 60000 T00560044 57004
PAKF 161356Z AUTO VRB03KT 10SM FEW037 SCT048 BKN060 07/04 A2998 RMK AO2 RAB32E50 SLP151 P0000 T00670044
PAKF 161256Z AUTO 00000KT 10SM BKN035 OVC050 07/04 A2998 RMK AO2 RAB09E42 SLP153 P0000 T00670044
PAKF 161156Z AUTO 00000KT 10SM OVC040 07/04 A2999 RMK AO2 SLP154 7//// T00670039 10089 20056 51002
PAKF 161056Z AUTO 07003KT 10SM OVC055 07/03 A2998 RMK AO2 SLPNO T00720033
PAKF 160956Z AUTO 00000KT 10SM FEW035 06/03 A2999 RMK AO2 SLPNO T00610028
PAKF 160856Z AUTO 22003KT 10SM BKN050 07/03 A2998 RMK AO2 SLPNO T00670028 401110067 50004
PAKF 160756Z AUTO 27009G17KT 10SM FEW055 08/03 A2998 RMK AO2 SLPNO T00830033
PAKF 160656Z AUTO VRB06KT 10SM OVC044 09/03 A2998 RMK AO2 SLPNO T00890028
PAKF 160556Z AUTO 30011G18KT 10SM OVC042 09/03 A2997 RMK AO2 SLPNO T00890033 10111 20089 55001
PAKF 160456Z AUTO 28010G19KT 10SM OVC042 09/04 A2997 RMK AO2 SLPNO T00940039
PAKF 160356Z AUTO 30010G19KT 10SM OVC042 09/04 A2996 RMK AO2 SLPNO T00940044
PAKF 160325Z AUTO 00000KT 10SM BKN033 OVC040 11/05 A2996 RMK AO2
PAKF 160256Z AUTO VRB04KT 10SM BKN029 OVC038 11/05 A2997 RMK AO2 SLPNO T01060050 56005
PAKF 160205Z AUTO 00000KT 10SM BKN029 OVC036 11/05 A2998 RMK AO2
PAKF 160156Z AUTO VRB03KT 10SM FEW026 OVC036 11/06 A2998 RMK AO2 SLPNO T01060056
PAKF 160056Z AUTO 29006G14KT 10SM OVC038 11/06 A2998 RMK AO2 SLPNO T01060061
PAKF 152356Z AUTO VRB06G14KT 8SM FEW014 OVC039 11/06 A2999 RMK AO2 SLPNO 6//// T01060061
PAKF 152056Z AUTO 29007KT 8SM -RA FEW031 OVC039 10/07 A3001 RMK AO2 RAB01 SLP161 P0000 60000 T01000067 53003
PAKF 151956Z AUTO 30006KT 10SM BKN035 OVC041 11/05 A2999 RMK AO2 SLP156 T01060050
PAKF 151856Z AUTO 32007KT 10SM BKN038 OVC045 11/05 A3000 RMK AO2 RAB39E50 SLP158 P0000 T01060050
PAKF 151756Z AUTO 30007KT 240V330 10SM FEW036 11/04 A3000 RMK AO2 SLP158 60002 T01110044 10111 20056 55002
PAKF 151656Z AUTO 31008G14KT 10SM FEW029 BKN040 09/05 A3000 RMK AO2 SLP157 T00940050
PAKF 151625Z AUTO 31006KT 10SM SCT027 OVC041 09/06 A3000 RMK AO2
PAKF 151556Z AUTO 30005KT 10SM BKN025 OVC044 09/06 A3000 RMK AO2 RAE15 SLP158 P0001 T00890056
PAKF 151509Z AUTO VRB03KT 7SM -RA FEW004 OVC023 08/07 A3000 RMK AO2 P0000
PAKF 151456Z AUTO 00000KT 4SM -RA BR OVC023 07/07 A3000 RMK AO2 RAB08 SLP160 P0001 60001 T00720067 56005
PAKF 151421Z AUTO 26003KT 3SM -RA BR BKN028 OVC036 07/07 A3001 RMK AO2 RAB08 P0000